This is the latest recevied weather packets stored in our database for station/object 2E0RGX-13. If no packets are shown the sender has not sent any weather packets the latest 10 day(s).
| Time | Temp. | Humidity | Pressure | Rain* | Wind** | Luminosity | Snow |
|---|---|---|---|---|---|---|---|
| 1777804500 | 16.11° C | 69% | 1006.2 hPa | 0 mm | - | 5 W/m² | - |
| 1777804196 | 16.11° C | 69% | 1006.2 hPa | 0 mm | - | 2 W/m² | - |
| 1777803892 | 16.11° C | 69% | 1006.3 hPa | 0 mm | - | 2 W/m² | - |
| 1777803588 | 16.11° C | 68% | 1006.3 hPa | 0 mm | - | 2 W/m² | - |
| 1777803284 | 16.11° C | 69% | 1006.1 hPa | 0 mm | - | 5 W/m² | - |
| 1777802980 | 16.11° C | 69% | 1006 hPa | 0 mm | - | 2 W/m² | - |
| 1777802676 | 15.56° C | 69% | 1006.3 hPa | 0 mm | - | 2 W/m² | - |
| 1777802372 | 16.11° C | 68% | 1006.1 hPa | 0 mm | - | 2 W/m² | - |
| 1777802068 | 16.67° C | 67% | 1006.3 hPa | 0 mm | - | 2 W/m² | - |
| 1777801764 | 16.11° C | 67% | 1006.3 hPa | 0 mm | - | 5 W/m² | - |
| 1777801460 | 16.11° C | 67% | 1006.4 hPa | 0 mm | - | 2 W/m² | - |
| 1777801156 | 16.11° C | 67% | 1006.4 hPa | 0 mm | - | 3 W/m² | - |
| 1777800852 | 15.56° C | 69% | 1006.5 hPa | 0 mm | - | 2 W/m² | - |
| 1777800548 | 15.56° C | 68% | 1006.3 hPa | 0 mm | - | 2 W/m² | - |
| 1777800244 | 15.56° C | 69% | 1006.3 hPa | 0 mm | - | 2 W/m² | - |
| 1777799940 | 15.56° C | 71% | 1006.3 hPa | 0 mm | - | 5 W/m² | - |
| 1777799636 | 15.56° C | 71% | 1006.5 hPa | 0 mm | - | 2 W/m² | - |
| 1777799332 | 15.56° C | 69% | 1006.4 hPa | 0 mm | - | 2 W/m² | - |
| 1777799028 | 15.56° C | 70% | 1006.4 hPa | 0 mm | - | 2 W/m² | - |
| 1777798724 | 15.56° C | 69% | 1006.4 hPa | 0 mm | - | 2 W/m² | - |
| 1777798420 | 16.11° C | 68% | 1006.5 hPa | 0 mm | - | 5 W/m² | - |
| 1777798116 | 15° C | 71% | 1006.7 hPa | 0 mm | - | 4 W/m² | - |
| 1777797812 | 15° C | 72% | 1006.6 hPa | 0 mm | - | 2 W/m² | - |
| 1777797508 | 15.56° C | 71% | 1006.1 hPa | 0 mm | - | 2 W/m² | - |
| 1777797204 | 15° C | 72% | 1006.4 hPa | 0 mm | - | 2 W/m² | - |
* Rain latest hour (hover to see other rain measurements)
** Current wind speed in m/s (hover to see current wind gust speed)